Time;durP1;ratioP1;P1;durP2;ratioP2;P2;SDS_P1;SDS_P2;PMS_P1;PMS_P2;Temp;Humidity;BMP_temperature;BMP_pressure;BME280_temperature;BME280_humidity;BME280_pressure;Samples;Min_cycle;Max_cycle;Signal;HPM_P1;HPM_P2
2021/12/25 00:01:19;;;;;;;13.07;10.17;;;;;;;;;;5016781;28;20206;-64
2021/12/25 00:03:45;;;;;;;14.77;10.90;;;;;;;;;;5016289;28;20263;-64
2021/12/25 00:06:11;;;;;;;13.73;11.57;;;;;;;;;;5018768;28;20263;-65
2021/12/25 00:08:37;;;;;;;13.13;9.73;;;;;;;;;;5018058;28;20180;-65
2021/12/25 00:11:04;;;;;;;13.97;10.83;;;;;;;;;;5017958;28;20611;-64
2021/12/25 00:13:31;;;;;;;12.10;10.27;;;;;;;;;;5019289;28;20636;-65
2021/12/25 00:15:57;;;;;;;12.77;10.13;;;;;;;;;;5017887;28;20195;-64
2021/12/25 00:18:23;;;;;;;14.00;11.57;;;;;;;;;;5019715;28;20179;-65
2021/12/25 00:20:49;;;;;;;14.40;12.27;;;;;;;;;;5019083;28;20233;-67
2021/12/25 00:23:16;;;;;;;14.53;12.13;;;;;;;;;;5018942;28;20209;-68
2021/12/25 00:25:47;;;;;;;12.80;10.70;;;;;;;;;;5019580;28;20183;-66
2021/12/25 00:28:25;;;;;;;14.07;10.47;;;;;;;;;;5017856;28;20176;-65
2021/12/25 00:31:26;;;;;;;16.30;10.83;;;;;;;;;;5017986;28;20196;-66
2021/12/25 00:33:58;;;;;;;19.07;11.70;;;;;;;;;;5019375;28;20203;-64
2021/12/25 00:36:24;;;;;;;16.63;10.97;;;;;;;;;;5019157;28;20171;-64
2021/12/25 00:38:51;;;;;;;13.03;10.90;;;;;;;;;;5019271;28;20190;-65
2021/12/25 00:41:18;;;;;;;13.23;10.20;;;;;;;;;;5020237;28;20640;-65
2021/12/25 00:43:44;;;;;;;14.70;10.20;;;;;;;;;;5020008;28;20690;-65
2021/12/25 00:46:10;;;;;;;13.43;11.17;;;;;;;;;;5020182;28;20196;-65
2021/12/25 00:48:36;;;;;;;15.53;11.90;;;;;;;;;;5019713;28;20176;-66
2021/12/25 00:51:03;;;;;;;15.23;12.10;;;;;;;;;;5020230;28;20204;-65
2021/12/25 00:53:29;;;;;;;14.73;12.20;;;;;;;;;;5019791;28;20203;-64
2021/12/25 00:55:55;;;;;;;16.30;12.23;;;;;;;;;;5018659;28;20421;-65
2021/12/25 00:58:21;;;;;;;18.93;14.93;;;;;;;;;;5019892;28;20184;-66
2021/12/25 01:00:47;;;;;;;19.30;14.27;;;;;;;;;;5018606;28;20187;-63
2021/12/25 01:03:13;;;;;;;19.80;13.73;;;;;;;;;;5020612;28;20235;-64
2021/12/25 01:05:39;;;;;;;15.90;12.17;;;;;;;;;;5021954;28;20184;-66
2021/12/25 01:08:06;;;;;;;19.80;15.10;;;;;;;;;;5021276;28;20187;-64
2021/12/25 01:10:33;;;;;;;19.10;15.50;;;;;;;;;;5021689;28;20199;-65
2021/12/25 01:15:36;;;;;;;22.57;18.37;;;;;;;;;;5022073;28;20178;-66
2021/12/25 01:25:59;;;;;;;28.87;22.27;;;;;;;;;;5020804;28;20164;-66
2021/12/25 01:31:14;;;;;;;30.17;22.13;;;;;;;;;;5022607;28;20439;-65
2021/12/25 01:36:56;;;;;;;31.83;23.30;;;;;;;;;;5022324;28;20233;-65
2021/12/25 01:39:40;;;;;;;33.43;23.90;;;;;;;;;;5022242;28;20579;-65
2021/12/25 01:47:50;;;;;;;28.77;20.43;;;;;;;;;;5023055;28;20226;-66
2021/12/25 01:50:21;;;;;;;38.87;26.17;;;;;;;;;;5019867;28;20302;-65
2021/12/25 01:52:47;;;;;;;38.03;26.70;;;;;;;;;;5020885;28;20200;-65
2021/12/25 01:55:18;;;;;;;38.13;26.57;;;;;;;;;;5021411;28;20227;-66
2021/12/25 01:57:44;;;;;;;41.90;25.37;;;;;;;;;;5020443;28;20607;-64
2021/12/25 02:00:16;;;;;;;36.23;24.57;;;;;;;;;;5021815;28;20184;-65
2021/12/25 02:02:42;;;;;;;38.37;25.80;;;;;;;;;;5020335;28;20208;-66
2021/12/25 02:05:08;;;;;;;38.03;26.13;;;;;;;;;;5019559;28;20792;-66
2021/12/25 02:07:34;;;;;;;41.13;28.13;;;;;;;;;;5021529;28;20176;-65
2021/12/25 02:10:00;;;;;;;38.67;26.57;;;;;;;;;;5021335;28;20538;-65
2021/12/25 02:12:27;;;;;;;37.40;25.17;;;;;;;;;;5019689;28;20458;-66
2021/12/25 02:14:54;;;;;;;38.70;24.90;;;;;;;;;;5019345;28;20230;-66
2021/12/25 02:17:27;;;;;;;36.97;24.20;;;;;;;;;;5021655;28;20199;-65
2021/12/25 02:20:12;;;;;;;44.53;29.17;;;;;;;;;;5021038;28;20176;-65
2021/12/25 02:22:39;;;;;;;43.63;29.33;;;;;;;;;;5021823;28;20787;-65
2021/12/25 02:25:06;;;;;;;44.50;28.23;;;;;;;;;;5020099;28;20187;-67
2021/12/25 02:27:32;;;;;;;42.70;29.23;;;;;;;;;;5020031;28;20263;-65
2021/12/25 02:29:58;;;;;;;44.07;28.97;;;;;;;;;;5021331;28;20691;-66
2021/12/25 02:32:24;;;;;;;40.57;28.53;;;;;;;;;;5021035;28;20230;-66
2021/12/25 02:34:50;;;;;;;37.13;23.70;;;;;;;;;;5020345;28;20415;-65
2021/12/25 02:37:16;;;;;;;37.63;28.17;;;;;;;;;;5022270;28;20176;-66
2021/12/25 02:39:42;;;;;;;36.43;26.13;;;;;;;;;;5020328;28;20275;-65
2021/12/25 02:42:09;;;;;;;38.17;29.00;;;;;;;;;;5021996;28;20938;-65
2021/12/25 02:44:35;;;;;;;41.90;28.37;;;;;;;;;;5021393;28;20425;-65
2021/12/25 02:47:09;;;;;;;42.73;29.60;;;;;;;;;;5019618;28;20506;-65
2021/12/25 02:49:35;;;;;;;40.40;27.07;;;;;;;;;;5019994;28;20257;-66
2021/12/25 02:52:01;;;;;;;25.43;17.47;;;;;;;;;;5021263;28;20180;-66
2021/12/25 02:54:27;;;;;;;30.80;21.47;;;;;;;;;;5020229;28;20439;-65
2021/12/25 02:56:53;;;;;;;32.13;22.97;;;;;;;;;;5021514;28;20176;-65
2021/12/25 02:59:19;;;;;;;32.30;23.13;;;;;;;;;;5021505;28;20425;-64
2021/12/25 03:01:45;;;;;;;34.13;24.90;;;;;;;;;;5020202;28;20176;-65
2021/12/25 03:04:11;;;;;;;27.73;21.50;;;;;;;;;;5021079;28;20203;-64
2021/12/25 03:06:38;;;;;;;34.57;26.63;;;;;;;;;;5020659;28;20180;-64
2021/12/25 03:09:05;;;;;;;34.87;25.30;;;;;;;;;;5019638;28;20446;-66
2021/12/25 03:11:31;;;;;;;38.60;29.17;;;;;;;;;;5021442;28;20493;-65
2021/12/25 03:14:03;;;;;;;38.93;29.37;;;;;;;;;;5021011;28;20454;-65
2021/12/25 03:16:29;;;;;;;37.40;28.00;;;;;;;;;;5021480;28;20164;-64
2021/12/25 03:18:57;;;;;;;36.23;24.73;;;;;;;;;;5021190;28;20407;-66
2021/12/25 03:21:23;;;;;;;30.30;22.67;;;;;;;;;;5020801;28;20186;-64
2021/12/25 03:23:54;;;;;;;32.67;24.50;;;;;;;;;;5020051;28;20430;-65
2021/12/25 03:26:20;;;;;;;36.03;26.87;;;;;;;;;;5019677;28;20252;-65
2021/12/25 03:28:47;;;;;;;35.60;25.90;;;;;;;;;;5020139;28;20430;-65
2021/12/25 03:31:17;;;;;;;31.60;22.73;;;;;;;;;;5019814;28;20466;-65
2021/12/25 03:33:43;;;;;;;33.47;25.93;;;;;;;;;;5020777;28;20830;-65
2021/12/25 03:36:09;;;;;;;35.50;27.73;;;;;;;;;;5052354;23;20585;-65
2021/12/25 03:38:35;;;;;;;31.83;24.23;;;;;;;;;;5049302;28;20414;-66
2021/12/25 03:41:02;;;;;;;31.13;23.43;;;;;;;;;;5049240;28;20478;-65
2021/12/25 03:43:29;;;;;;;28.43;21.33;;;;;;;;;;5049386;28;20187;-65
2021/12/25 03:45:55;;;;;;;33.27;20.57;;;;;;;;;;5033717;28;20548;-65
2021/12/25 03:59:02;;;;;;;33.63;24.13;;;;;;;;;;5033980;28;20417;-65
2021/12/25 04:01:42;;;;;;;32.87;23.43;;;;;;;;;;5033730;28;20863;-65
2021/12/25 04:06:44;;;;;;;35.63;25.60;;;;;;;;;;5033720;28;20491;-65
2021/12/25 04:09:20;;;;;;;33.90;24.90;;;;;;;;;;5033805;28;20473;-65
2021/12/25 04:11:46;;;;;;;32.37;24.90;;;;;;;;;;5034062;28;20394;-66
2021/12/25 04:14:12;;;;;;;31.00;21.30;;;;;;;;;;5033557;28;20409;-65
2021/12/25 04:16:38;;;;;;;31.13;23.60;;;;;;;;;;5033209;28;20202;-65
2021/12/25 04:19:04;;;;;;;31.90;23.73;;;;;;;;;;5033775;28;20175;-65
2021/12/25 04:21:30;;;;;;;33.50;25.00;;;;;;;;;;5033473;28;20179;-66
2021/12/25 04:23:56;;;;;;;32.53;23.67;;;;;;;;;;5033423;28;20922;-65
2021/12/25 04:26:24;;;;;;;35.73;27.20;;;;;;;;;;5033430;28;20434;-65
2021/12/25 04:31:32;;;;;;;36.60;25.63;;;;;;;;;;5033848;28;20941;-65
2021/12/25 05:01:45;;;;;;;30.97;21.50;;;;;;;;;;5037668;28;20417;-65
2021/12/25 05:03:51;;;;;;;29.83;22.17;;;;;;;;;;5037588;28;20824;-66
2021/12/25 05:06:17;;;;;;;32.17;23.93;;;;;;;;;;5037446;28;20426;-65
2021/12/25 05:08:43;;;;;;;34.03;25.23;;;;;;;;;;5035833;28;20413;-65
2021/12/25 05:11:10;;;;;;;37.53;27.40;;;;;;;;;;5035821;28;20206;-65
2021/12/25 05:13:36;;;;;;;25.17;17.70;;;;;;;;;;5037112;28;20414;-65
2021/12/25 05:16:03;;;;;;;33.43;24.10;;;;;;;;;;5036800;28;20433;-65
2021/12/25 05:18:30;;;;;;;32.03;22.13;;;;;;;;;;5037090;28;20414;-65
2021/12/25 05:20:56;;;;;;;29.97;24.00;;;;;;;;;;5037141;28;20784;-65
2021/12/25 05:23:22;;;;;;;29.10;22.80;;;;;;;;;;5036823;28;20597;-65
2021/12/25 05:25:49;;;;;;;24.30;17.57;;;;;;;;;;5036884;28;20429;-65
2021/12/25 05:28:23;;;;;;;25.17;18.30;;;;;;;;;;5036684;28;20408;-64
2021/12/25 05:30:49;;;;;;;25.57;21.37;;;;;;;;;;5036831;28;20537;-65
2021/12/25 05:33:15;;;;;;;25.97;20.63;;;;;;;;;;5037352;28;20769;-66
2021/12/25 05:35:41;;;;;;;26.87;20.77;;;;;;;;;;5036341;28;20479;-65
2021/12/25 05:38:13;;;;;;;22.37;16.73;;;;;;;;;;5036474;28;20199;-65
2021/12/25 05:40:39;;;;;;;23.87;17.83;;;;;;;;;;5037306;28;20167;-65
2021/12/25 05:43:05;;;;;;;20.53;14.73;;;;;;;;;;5036602;28;20822;-65
2021/12/25 05:45:32;;;;;;;26.37;20.20;;;;;;;;;;5036736;28;20434;-64
2021/12/25 05:47:58;;;;;;;23.73;17.70;;;;;;;;;;5036965;28;20179;-65
2021/12/25 05:50:25;;;;;;;23.40;17.57;;;;;;;;;;5035672;28;20454;-65
2021/12/25 05:52:51;;;;;;;19.77;15.80;;;;;;;;;;5036687;28;20495;-65
2021/12/25 05:55:17;;;;;;;27.80;19.53;;;;;;;;;;5035653;28;20478;-65
2021/12/25 05:57:43;;;;;;;23.03;16.70;;;;;;;;;;5035143;28;20179;-64
2021/12/25 06:00:09;;;;;;;24.77;18.00;;;;;;;;;;5034947;28;20179;-64
2021/12/25 06:02:36;;;;;;;26.23;20.53;;;;;;;;;;5036356;28;20189;-64
2021/12/25 06:05:04;;;;;;;27.93;20.00;;;;;;;;;;5036609;28;20994;-64
2021/12/25 06:07:30;;;;;;;27.30;19.10;;;;;;;;;;5034953;28;20454;-65
2021/12/25 06:09:56;;;;;;;26.97;19.37;;;;;;;;;;5035110;28;20461;-65
2021/12/25 06:12:23;;;;;;;25.87;19.17;;;;;;;;;;5034958;28;20412;-66
2021/12/25 06:14:49;;;;;;;24.53;18.60;;;;;;;;;;5034757;28;20604;-65
2021/12/25 06:17:17;;;;;;;22.93;17.77;;;;;;;;;;5035754;28;20410;-64
2021/12/25 06:19:43;;;;;;;20.03;15.17;;;;;;;;;;5036171;28;20468;-64
2021/12/25 06:22:09;;;;;;;21.90;16.67;;;;;;;;;;5035928;28;20418;-64
2021/12/25 06:24:35;;;;;;;20.10;14.43;;;;;;;;;;5034211;28;20187;-65
2021/12/25 06:27:01;;;;;;;21.13;16.17;;;;;;;;;;5035646;28;20422;-65
2021/12/25 06:29:27;;;;;;;22.47;16.20;;;;;;;;;;5035112;28;20429;-66
2021/12/25 06:31:53;;;;;;;18.17;13.17;;;;;;;;;;5035571;28;20182;-65
2021/12/25 06:34:19;;;;;;;18.10;15.33;;;;;;;;;;5035970;28;20221;-65
2021/12/25 06:36:45;;;;;;;18.73;13.93;;;;;;;;;;5035225;28;20679;-65
2021/12/25 06:39:14;;;;;;;21.43;15.70;;;;;;;;;;5034155;28;20504;-65
2021/12/25 06:41:40;;;;;;;21.40;16.97;;;;;;;;;;5035693;28;20179;-65
2021/12/25 06:44:06;;;;;;;21.20;15.63;;;;;;;;;;5035573;28;20413;-65
2021/12/25 06:46:32;;;;;;;18.77;14.07;;;;;;;;;;5034706;28;20441;-65
2021/12/25 06:48:58;;;;;;;18.27;14.43;;;;;;;;;;5036470;28;20711;-66
2021/12/25 06:51:24;;;;;;;20.10;15.77;;;;;;;;;;5034242;28;20206;-65
2021/12/25 06:53:50;;;;;;;19.97;16.17;;;;;;;;;;5035208;28;20258;-65
2021/12/25 06:56:16;;;;;;;21.57;16.73;;;;;;;;;;5035340;28;20195;-65
2021/12/25 06:58:42;;;;;;;24.13;16.47;;;;;;;;;;5033994;28;20245;-65
2021/12/25 07:01:08;;;;;;;17.50;14.23;;;;;;;;;;5033587;28;20424;-65
2021/12/25 07:03:34;;;;;;;15.90;13.07;;;;;;;;;;5033962;28;20941;-65
2021/12/25 07:06:00;;;;;;;20.30;16.00;;;;;;;;;;5035458;28;20620;-66
2021/12/25 07:08:26;;;;;;;21.33;16.37;;;;;;;;;;5035642;28;20576;-65
2021/12/25 07:10:52;;;;;;;20.40;15.00;;;;;;;;;;5034446;28;20207;-65
2021/12/25 07:13:19;;;;;;;19.53;15.17;;;;;;;;;;5035240;28;20175;-66
2021/12/25 07:15:46;;;;;;;17.43;14.23;;;;;;;;;;5035015;28;20483;-65
2021/12/25 07:18:12;;;;;;;19.93;16.47;;;;;;;;;;5033625;28;20420;-66
2021/12/25 07:20:38;;;;;;;23.87;16.67;;;;;;;;;;5035143;28;20416;-66
2021/12/25 07:23:04;;;;;;;20.97;15.73;;;;;;;;;;5034775;28;20890;-66
2021/12/25 07:25:30;;;;;;;18.97;15.27;;;;;;;;;;5034491;28;20202;-66
2021/12/25 07:27:56;;;;;;;21.70;17.57;;;;;;;;;;5033502;28;20471;-65
2021/12/25 07:30:22;;;;;;;19.50;14.47;;;;;;;;;;5033166;28;20469;-65
2021/12/25 07:32:48;;;;;;;18.57;14.93;;;;;;;;;;5035219;28;21017;-65
2021/12/25 07:35:14;;;;;;;17.07;12.77;;;;;;;;;;5034218;28;20490;-67
2021/12/25 07:37:40;;;;;;;17.17;13.93;;;;;;;;;;5034302;28;20182;-65
2021/12/25 07:40:08;;;;;;;20.57;16.70;;;;;;;;;;5034464;28;20237;-66
2021/12/25 07:42:34;;;;;;;21.73;17.97;;;;;;;;;;5033024;28;20271;-65
2021/12/25 07:45:03;;;;;;;21.47;16.30;;;;;;;;;;5034221;28;20431;-65
2021/12/25 07:47:31;;;;;;;19.03;15.07;;;;;;;;;;5033091;28;20421;-66
2021/12/25 07:49:59;;;;;;;19.50;16.43;;;;;;;;;;5034668;28;20455;-65
2021/12/25 07:52:25;;;;;;;20.93;15.20;;;;;;;;;;5034400;28;20496;-66
2021/12/25 07:54:51;;;;;;;19.77;15.57;;;;;;;;;;5034455;28;20476;-65
2021/12/25 07:57:17;;;;;;;19.60;15.40;;;;;;;;;;5034932;28;20902;-66
2021/12/25 07:59:43;;;;;;;22.40;15.13;;;;;;;;;;5033095;28;20564;-65
2021/12/25 08:02:09;;;;;;;20.90;14.43;;;;;;;;;;5035048;28;20561;-65
2021/12/25 08:04:35;;;;;;;19.93;15.90;;;;;;;;;;5034703;28;20181;-66
2021/12/25 08:07:01;;;;;;;20.63;15.30;;;;;;;;;;5034811;28;20491;-65
2021/12/25 08:09:31;;;;;;;21.80;16.33;;;;;;;;;;5033961;28;20183;-66
2021/12/25 08:11:57;;;;;;;18.27;14.40;;;;;;;;;;5032959;28;20182;-66
2021/12/25 08:14:25;;;;;;;19.67;15.67;;;;;;;;;;5033714;28;20417;-66
2021/12/25 08:16:53;;;;;;;19.57;16.00;;;;;;;;;;5034111;28;20490;-65
2021/12/25 08:19:19;;;;;;;19.20;14.73;;;;;;;;;;5034937;28;20404;-65
2021/12/25 08:21:45;;;;;;;17.77;11.90;;;;;;;;;;5035072;28;20456;-65
2021/12/25 08:24:10;;;;;;;17.10;13.20;;;;;;;;;;5034953;28;20593;-66
2021/12/25 08:26:36;;;;;;;15.23;12.87;;;;;;;;;;5032808;28;20199;-65
2021/12/25 08:29:02;;;;;;;19.63;14.37;;;;;;;;;;5034547;28;20185;-65
2021/12/25 08:31:28;;;;;;;18.03;14.83;;;;;;;;;;5034193;28;20206;-65
2021/12/25 08:33:54;;;;;;;19.33;16.20;;;;;;;;;;5034284;28;20409;-65
2021/12/25 08:36:20;;;;;;;16.83;13.13;;;;;;;;;;5032534;28;20218;-65
2021/12/25 08:38:46;;;;;;;13.90;10.57;;;;;;;;;;5033895;28;20636;-65
2021/12/25 08:41:12;;;;;;;14.63;12.03;;;;;;;;;;5034235;28;20425;-65
2021/12/25 08:43:46;;;;;;;21.10;14.40;;;;;;;;;;5034476;28;20186;-65
2021/12/25 08:46:17;;;;;;;17.43;14.27;;;;;;;;;;5033794;28;20852;-65
2021/12/25 08:48:43;;;;;;;17.53;13.40;;;;;;;;;;5034447;28;20418;-65
2021/12/25 08:51:10;;;;;;;16.77;13.70;;;;;;;;;;5033087;28;20454;-65
2021/12/25 08:53:36;;;;;;;17.00;12.10;;;;;;;;;;5033268;28;20515;-65
2021/12/25 08:56:02;;;;;;;17.53;13.70;;;;;;;;;;5041201;28;20510;-65
2021/12/25 08:58:32;;;;;;;17.37;13.03;;;;;;;;;;5042003;28;20477;-65
2021/12/25 09:01:01;;;;;;;15.97;12.37;;;;;;;;;;5042706;28;20382;-65
2021/12/25 09:03:28;;;;;;;16.50;11.93;;;;;;;;;;5039907;28;20502;-65
2021/12/25 09:05:58;;;;;;;18.23;11.63;;;;;;;;;;5034951;28;20435;-65
2021/12/25 09:08:25;;;;;;;16.40;12.03;;;;;;;;;;5035733;28;20420;-65
2021/12/25 09:10:51;;;;;;;17.03;12.40;;;;;;;;;;5033846;28;20465;-65
2021/12/25 09:13:17;;;;;;;14.20;11.40;;;;;;;;;;5035637;28;20926;-66
2021/12/25 09:15:43;;;;;;;14.37;11.80;;;;;;;;;;5034189;28;20491;-65
2021/12/25 09:18:09;;;;;;;15.93;10.60;;;;;;;;;;5034801;28;20475;-66
2021/12/25 09:20:36;;;;;;;14.90;11.50;;;;;;;;;;5035294;28;20179;-65
2021/12/25 09:23:02;;;;;;;9.70;8.00;;;;;;;;;;5034954;28;20413;-65
2021/12/25 09:25:28;;;;;;;14.83;11.33;;;;;;;;;;5036220;28;20430;-65
2021/12/25 09:27:55;;;;;;;112.77;77.60;;;;;;;;;;5037449;28;20436;-64
2021/12/25 09:30:21;;;;;;;15.43;12.27;;;;;;;;;;5039243;28;20198;-64
2021/12/25 09:32:47;;;;;;;20.03;14.93;;;;;;;;;;5037403;28;20426;-63
2021/12/25 09:35:13;;;;;;;11.07;8.93;;;;;;;;;;5037275;28;20461;-64
2021/12/25 09:37:39;;;;;;;46.90;28.93;;;;;;;;;;5037693;28;20424;-64
2021/12/25 09:40:06;;;;;;;13.43;9.77;;;;;;;;;;5037994;28;20421;-65
2021/12/25 09:42:32;;;;;;;17.60;10.70;;;;;;;;;;5039103;28;20930;-64
2021/12/25 09:44:58;;;;;;;76.93;33.77;;;;;;;;;;5038172;28;20429;-64
2021/12/25 09:47:24;;;;;;;36.10;16.53;;;;;;;;;;5038323;28;20180;-64
2021/12/25 09:49:51;;;;;;;15.30;10.07;;;;;;;;;;5037749;28;20458;-64
2021/12/25 09:52:17;;;;;;;19.10;11.20;;;;;;;;;;5037833;28;20416;-64
2021/12/25 09:54:43;;;;;;;86.40;35.10;;;;;;;;;;5038770;28;20463;-64
2021/12/25 09:57:09;;;;;;;91.47;40.13;;;;;;;;;;5037488;28;20432;-64
2021/12/25 09:59:35;;;;;;;35.17;16.40;;;;;;;;;;5040016;28;20412;-64
2021/12/25 10:02:01;;;;;;;15.67;9.87;;;;;;;;;;5038695;28;20503;-64
2021/12/25 10:04:37;;;;;;;23.10;12.73;;;;;;;;;;5038348;28;20410;-64
2021/12/25 10:07:21;;;;;;;55.80;23.40;;;;;;;;;;5037876;28;20436;-63
2021/12/25 10:10:01;;;;;;;19.73;12.73;;;;;;;;;;5038203;28;20456;-64
2021/12/25 10:12:42;;;;;;;13.07;8.50;;;;;;;;;;5036503;28;20433;-64
2021/12/25 10:15:15;;;;;;;12.37;7.40;;;;;;;;;;5038261;28;20436;-65
2021/12/25 10:17:53;;;;;;;9.57;7.63;;;;;;;;;;5037666;28;20394;-65
2021/12/25 10:20:21;;;;;;;7.90;6.13;;;;;;;;;;5039758;28;20493;-64
2021/12/25 10:22:58;;;;;;;8.13;6.63;;;;;;;;;;5037395;28;20456;-65
2021/12/25 10:25:25;;;;;;;10.57;7.37;;;;;;;;;;5038626;28;20436;-64
2021/12/25 10:27:56;;;;;;;11.57;8.23;;;;;;;;;;5038263;28;20406;-64
2021/12/25 10:30:22;;;;;;;10.23;8.50;;;;;;;;;;5036584;28;20540;-64
2021/12/25 10:32:48;;;;;;;6.43;5.00;;;;;;;;;;5040083;28;20417;-64
2021/12/25 10:35:22;;;;;;;10.77;7.70;;;;;;;;;;5040006;28;20449;-64
2021/12/25 10:37:50;;;;;;;22.60;15.83;;;;;;;;;;5037239;28;20402;-64
2021/12/25 10:40:17;;;;;;;9.63;7.67;;;;;;;;;;5037341;28;20413;-65
2021/12/25 10:42:45;;;;;;;13.60;10.57;;;;;;;;;;5041238;28;20410;-64
2021/12/25 10:45:13;;;;;;;12.30;10.23;;;;;;;;;;5049594;28;20444;-65
2021/12/25 10:47:39;;;;;;;8.53;6.13;;;;;;;;;;5053657;28;20414;-65
2021/12/25 10:50:13;;;;;;;8.73;6.17;;;;;;;;;;5053958;28;20518;-65
2021/12/25 10:52:47;;;;;;;8.40;7.20;;;;;;;;;;5055352;28;20180;-65
2021/12/25 10:55:13;;;;;;;6.33;4.87;;;;;;;;;;5053841;28;20453;-65
2021/12/25 10:57:41;;;;;;;5.27;4.77;;;;;;;;;;5053873;28;20480;-65
2021/12/25 11:00:22;;;;;;;5.80;5.10;;;;;;;;;;5055359;28;20170;-66
2021/12/25 11:02:52;;;;;;;6.73;5.57;;;;;;;;;;5054022;28;20441;-65
2021/12/25 11:05:21;;;;;;;5.60;4.97;;;;;;;;;;5054971;28;20479;-65
2021/12/25 11:07:49;;;;;;;6.73;4.97;;;;;;;;;;5054213;28;20489;-66
2021/12/25 11:10:16;;;;;;;5.73;4.93;;;;;;;;;;5055800;28;20526;-65
2021/12/25 11:12:42;;;;;;;5.77;5.10;;;;;;;;;;5055923;28;20414;-66
2021/12/25 11:15:17;;;;;;;5.60;4.50;;;;;;;;;;5055023;28;20429;-65
2021/12/25 11:17:49;;;;;;;4.93;3.77;;;;;;;;;;5055535;28;20438;-66
2021/12/25 11:20:22;;;;;;;4.17;3.77;;;;;;;;;;5054716;28;20396;-65
2021/12/25 11:22:48;;;;;;;4.97;3.90;;;;;;;;;;5054968;28;20386;-66
2021/12/25 11:25:15;;;;;;;4.77;4.23;;;;;;;;;;5055425;28;20433;-66
2021/12/25 11:27:41;;;;;;;4.67;3.67;;;;;;;;;;5054896;28;20175;-66
2021/12/25 11:30:07;;;;;;;6.20;4.10;;;;;;;;;;5055757;28;20474;-65
2021/12/25 11:32:33;;;;;;;4.30;3.90;;;;;;;;;;5055208;28;20406;-66
2021/12/25 11:35:00;;;;;;;6.43;3.90;;;;;;;;;;5055571;28;20498;-65
2021/12/25 11:37:27;;;;;;;3.50;2.97;;;;;;;;;;5055115;28;20387;-65
2021/12/25 11:39:53;;;;;;;3.97;3.47;;;;;;;;;;5055789;28;20486;-66
2021/12/25 11:42:21;;;;;;;5.23;2.90;;;;;;;;;;5055145;28;20499;-66
2021/12/25 11:44:51;;;;;;;4.63;3.63;;;;;;;;;;5056193;28;20448;-66
2021/12/25 11:47:37;;;;;;;4.17;3.23;;;;;;;;;;5053672;28;20386;-65
2021/12/25 11:50:06;;;;;;;3.20;2.90;;;;;;;;;;5055164;28;20460;-66
2021/12/25 11:52:40;;;;;;;4.73;3.67;;;;;;;;;;5053512;28;20445;-65
2021/12/25 11:55:29;;;;;;;5.30;4.10;;;;;;;;;;5055226;28;20426;-66
2021/12/25 11:58:18;;;;;;;4.57;4.07;;;;;;;;;;5049481;28;20425;-66
2021/12/25 12:00:45;;;;;;;5.23;3.87;;;;;;;;;;5049731;28;20410;-64
2021/12/25 12:03:31;;;;;;;6.27;4.10;;;;;;;;;;5046542;28;20418;-66
2021/12/25 12:05:57;;;;;;;5.87;4.23;;;;;;;;;;5034100;28;20468;-65
2021/12/25 12:08:23;;;;;;;5.47;3.70;;;;;;;;;;5034047;28;20410;-65
2021/12/25 12:10:51;;;;;;;4.97;3.70;;;;;;;;;;5034207;28;20215;-65
2021/12/25 12:13:29;;;;;;;5.10;3.60;;;;;;;;;;5034726;28;20189;-65
2021/12/25 12:15:57;;;;;;;7.50;4.00;;;;;;;;;;5033801;28;20478;-67
2021/12/25 12:18:27;;;;;;;4.63;3.83;;;;;;;;;;5032952;28;20419;-65
2021/12/25 12:20:57;;;;;;;5.00;4.20;;;;;;;;;;5034284;28;20475;-65
2021/12/25 12:23:35;;;;;;;3.00;2.70;;;;;;;;;;5032414;28;20437;-65
2021/12/25 12:26:06;;;;;;;3.67;3.30;;;;;;;;;;5032517;28;20443;-65
2021/12/25 12:28:52;;;;;;;4.07;3.43;;;;;;;;;;5033731;28;20395;-65
2021/12/25 12:31:35;;;;;;;4.67;3.83;;;;;;;;;;5033664;28;20973;-65
2021/12/25 12:34:01;;;;;;;6.00;4.80;;;;;;;;;;5033613;28;20406;-65
2021/12/25 12:36:27;;;;;;;29.93;15.93;;;;;;;;;;5031993;28;20457;-65
2021/12/25 12:39:11;;;;;;;39.53;19.63;;;;;;;;;;5033617;28;20411;-66
2021/12/25 12:41:49;;;;;;;13.40;7.47;;;;;;;;;;5034140;28;20394;-65
2021/12/25 12:44:16;;;;;;;38.83;15.47;;;;;;;;;;5032382;28;20422;-65
2021/12/25 12:46:48;;;;;;;17.37;6.17;;;;;;;;;;5033638;28;20440;-65
2021/12/25 12:49:19;;;;;;;4.73;3.13;;;;;;;;;;5033876;28;20410;-65
2021/12/25 12:51:45;;;;;;;46.50;23.20;;;;;;;;;;5033351;28;20480;-65
2021/12/25 12:54:11;;;;;;;42.43;19.10;;;;;;;;;;5033406;28;20463;-65
2021/12/25 12:56:57;;;;;;;10.80;6.73;;;;;;;;;;5032048;28;20434;-65
2021/12/25 12:59:23;;;;;;;16.47;8.03;;;;;;;;;;5034212;28;20504;-65
2021/12/25 13:01:49;;;;;;;23.23;12.90;;;;;;;;;;5035867;28;20867;-65
2021/12/25 13:04:15;;;;;;;28.13;16.20;;;;;;;;;;5037032;28;20186;-65
2021/12/25 13:06:42;;;;;;;3.10;2.30;;;;;;;;;;5035533;28;20437;-65
2021/12/25 13:09:08;;;;;;;21.10;11.13;;;;;;;;;;5037145;28;20201;-65
2021/12/25 13:11:43;;;;;;;8.83;5.60;;;;;;;;;;5036924;28;20458;-65
2021/12/25 13:14:11;;;;;;;9.60;5.37;;;;;;;;;;5037213;28;20731;-65
2021/12/25 13:16:39;;;;;;;15.77;8.43;;;;;;;;;;5035513;28;20809;-65
2021/12/25 13:19:06;;;;;;;9.00;5.60;;;;;;;;;;5036905;28;20914;-65
2021/12/25 13:21:34;;;;;;;6.23;3.53;;;;;;;;;;5036828;28;20410;-65
2021/12/25 13:24:05;;;;;;;6.33;3.40;;;;;;;;;;5036777;28;20433;-65
2021/12/25 13:26:34;;;;;;;14.47;8.07;;;;;;;;;;5036350;28;20440;-66
2021/12/25 13:29:01;;;;;;;9.43;5.33;;;;;;;;;;5037079;28;20413;-65
2021/12/25 13:31:29;;;;;;;13.33;8.10;;;;;;;;;;5036459;28;20464;-65
2021/12/25 13:33:57;;;;;;;4.40;2.63;;;;;;;;;;5035186;28;20836;-66
2021/12/25 13:36:24;;;;;;;10.40;6.40;;;;;;;;;;5036383;28;20938;-65
2021/12/25 13:38:58;;;;;;;14.47;7.97;;;;;;;;;;5036512;28;20460;-65
2021/12/25 13:41:29;;;;;;;12.40;7.30;;;;;;;;;;5036289;28;20412;-65
2021/12/25 13:44:07;;;;;;;12.60;6.67;;;;;;;;;;5036242;28;20425;-65
2021/12/25 13:46:57;;;;;;;4.47;3.30;;;;;;;;;;5034741;28;20824;-64
2021/12/25 13:49:38;;;;;;;6.67;3.83;;;;;;;;;;5032577;28;20440;-64
2021/12/25 13:52:04;;;;;;;7.73;3.60;;;;;;;;;;5036289;28;20472;-64
2021/12/25 13:54:30;;;;;;;8.47;4.33;;;;;;;;;;5034977;28;20406;-65
2021/12/25 13:56:57;;;;;;;6.47;3.53;;;;;;;;;;5035881;28;20274;-65
2021/12/25 13:59:23;;;;;;;4.23;2.57;;;;;;;;;;5034828;28;20445;-65
2021/12/25 14:02:15;;;;;;;4.73;2.70;;;;;;;;;;5034803;28;20418;-64
2021/12/25 14:04:42;;;;;;;39.67;17.40;;;;;;;;;;5034696;28;20464;-65
2021/12/25 14:07:09;;;;;;;6.23;3.43;;;;;;;;;;5036009;28;20428;-65
2021/12/25 14:09:35;;;;;;;14.20;7.40;;;;;;;;;;5034331;28;20424;-65
2021/12/25 14:12:01;;;;;;;8.20;3.90;;;;;;;;;;5035280;28;20414;-65
2021/12/25 14:14:29;;;;;;;5.43;3.80;;;;;;;;;;5034624;28;20183;-65
2021/12/25 14:16:56;;;;;;;34.67;15.90;;;;;;;;;;5035767;28;20422;-65
2021/12/25 14:19:25;;;;;;;9.10;5.20;;;;;;;;;;5035821;28;20441;-65
2021/12/25 14:21:55;;;;;;;5.77;3.53;;;;;;;;;;5035935;28;20414;-65
2021/12/25 14:24:22;;;;;;;2.73;2.00;;;;;;;;;;5035554;28;20507;-65
2021/12/25 14:26:48;;;;;;;4.03;2.57;;;;;;;;;;5035496;28;20600;-65
2021/12/25 14:29:24;;;;;;;5.37;4.27;;;;;;;;;;5035541;28;20417;-65
2021/12/25 14:31:50;;;;;;;7.73;5.63;;;;;;;;;;5035481;28;20464;-64
2021/12/25 14:34:16;;;;;;;7.73;5.10;;;;;;;;;;5035237;28;20787;-65
2021/12/25 14:36:43;;;;;;;3.10;2.50;;;;;;;;;;5034989;28;20452;-65
2021/12/25 14:39:13;;;;;;;4.53;1.90;;;;;;;;;;5035837;28;20417;-64
2021/12/25 14:41:39;;;;;;;3.93;2.03;;;;;;;;;;5035514;28;20879;-64
2021/12/25 14:44:27;;;;;;;3.63;2.50;;;;;;;;;;5034067;28;20439;-65
2021/12/25 14:47:11;;;;;;;3.10;2.40;;;;;;;;;;5035038;28;20991;-65
2021/12/25 14:49:38;;;;;;;4.77;3.40;;;;;;;;;;5035351;28;20499;-65
2021/12/25 14:52:04;;;;;;;5.33;2.87;;;;;;;;;;5035581;28;20417;-65
2021/12/25 14:54:31;;;;;;;5.00;2.53;;;;;;;;;;5034447;28;20432;-65
2021/12/25 14:56:58;;;;;;;2.63;2.03;;;;;;;;;;5035966;28;20429;-65
2021/12/25 14:59:25;;;;;;;2.03;1.63;;;;;;;;;;5036646;28;20418;-65
2021/12/25 15:01:53;;;;;;;2.17;1.60;;;;;;;;;;5037725;28;20504;-65
2021/12/25 15:04:21;;;;;;;2.10;1.90;;;;;;;;;;5037657;28;20880;-65
2021/12/25 15:06:48;;;;;;;3.07;1.90;;;;;;;;;;5038304;28;20438;-65
2021/12/25 15:09:18;;;;;;;2.67;1.57;;;;;;;;;;5034039;28;20424;-65
2021/12/25 15:11:50;;;;;;;1.83;1.50;;;;;;;;;;5033200;28;20878;-65
2021/12/25 15:14:18;;;;;;;5.33;1.70;;;;;;;;;;5035298;28;20408;-64
2021/12/25 15:16:48;;;;;;;2.93;1.63;;;;;;;;;;5035760;28;20437;-64
2021/12/25 15:19:40;;;;;;;1.93;1.60;;;;;;;;;;5035569;28;20884;-65
2021/12/25 15:22:09;;;;;;;2.13;1.73;;;;;;;;;;5033542;28;20505;-65
2021/12/25 15:24:36;;;;;;;2.10;1.80;;;;;;;;;;5034359;28;20461;-65
2021/12/25 15:27:04;;;;;;;1.50;1.40;;;;;;;;;;5034505;28;20499;-65
2021/12/25 15:29:50;;;;;;;1.70;1.60;;;;;;;;;;5034909;28;20424;-65
2021/12/25 15:32:16;;;;;;;10.10;6.03;;;;;;;;;;5034767;28;20489;-65
2021/12/25 15:34:52;;;;;;;5.50;3.60;;;;;;;;;;5034188;28;20451;-65
2021/12/25 15:37:23;;;;;;;29.83;16.47;;;;;;;;;;5034705;28;20171;-65
2021/12/25 15:39:50;;;;;;;2.40;1.60;;;;;;;;;;5032846;28;20414;-65